sensor_id;sensor_type;location;lat;lon;timestamp;P1;durP1;ratioP1;P2;durP2;ratioP2
39196;SDS011;42889;51.112;13.772;2022-08-01T00:00:16;2.30;;;1.45;;
39196;SDS011;42889;51.112;13.772;2022-08-01T00:02:43;3.25;;;1.55;;
39196;SDS011;42889;51.112;13.772;2022-08-01T00:05:09;3.83;;;1.45;;
39196;SDS011;42889;51.112;13.772;2022-08-01T00:07:37;2.65;;;1.23;;
39196;SDS011;42889;51.112;13.772;2022-08-01T00:10:04;2.92;;;1.42;;
39196;SDS011;42889;51.112;13.772;2022-08-01T00:12:32;4.55;;;1.63;;
39196;SDS011;42889;51.112;13.772;2022-08-01T00:14:58;2.63;;;1.30;;
39196;SDS011;42889;51.112;13.772;2022-08-01T00:17:25;3.40;;;1.70;;
39196;SDS011;42889;51.112;13.772;2022-08-01T00:19:52;3.53;;;1.63;;
39196;SDS011;42889;51.112;13.772;2022-08-01T00:22:18;3.70;;;1.70;;
39196;SDS011;42889;51.112;13.772;2022-08-01T00:24:45;3.00;;;1.70;;
39196;SDS011;42889;51.112;13.772;2022-08-01T00:27:11;3.70;;;1.67;;
39196;SDS011;42889;51.112;13.772;2022-08-01T00:29:38;5.43;;;1.73;;
39196;SDS011;42889;51.112;13.772;2022-08-01T00:32:25;4.45;;;1.80;;
39196;SDS011;42889;51.112;13.772;2022-08-01T00:34:51;6.57;;;2.08;;
39196;SDS011;42889;51.112;13.772;2022-08-01T00:37:18;4.47;;;1.80;;
39196;SDS011;42889;51.112;13.772;2022-08-01T00:39:45;4.07;;;1.77;;
39196;SDS011;42889;51.112;13.772;2022-08-01T00:42:11;3.45;;;1.70;;
39196;SDS011;42889;51.112;13.772;2022-08-01T00:44:39;4.38;;;1.85;;
39196;SDS011;42889;51.112;13.772;2022-08-01T00:47:06;3.75;;;2.08;;
39196;SDS011;42889;51.112;13.772;2022-08-01T00:49:33;3.35;;;1.75;;
39196;SDS011;42889;51.112;13.772;2022-08-01T00:52:00;3.97;;;1.77;;
39196;SDS011;42889;51.112;13.772;2022-08-01T00:54:31;5.00;;;2.10;;
39196;SDS011;42889;51.112;13.772;2022-08-01T00:56:58;5.05;;;2.05;;
39196;SDS011;42889;51.112;13.772;2022-08-01T00:59:25;3.58;;;2.17;;
39196;SDS011;42889;51.112;13.772;2022-08-01T01:01:53;3.78;;;1.85;;
39196;SDS011;42889;51.112;13.772;2022-08-01T01:04:19;3.72;;;2.17;;
39196;SDS011;42889;51.112;13.772;2022-08-01T01:06:56;4.15;;;2.28;;
39196;SDS011;42889;51.112;13.772;2022-08-01T01:20:34;3.20;;;2.33;;
39196;SDS011;42889;51.112;13.772;2022-08-01T01:26:04;5.07;;;2.55;;
39196;SDS011;42889;51.112;13.772;2022-08-01T01:28:54;4.85;;;2.17;;
39196;SDS011;42889;51.112;13.772;2022-08-01T01:31:21;3.63;;;2.38;;
39196;SDS011;42889;51.112;13.772;2022-08-01T01:33:51;4.43;;;2.60;;
39196;SDS011;42889;51.112;13.772;2022-08-01T01:36:20;4.30;;;2.50;;
39196;SDS011;42889;51.112;13.772;2022-08-01T01:38:48;3.90;;;2.40;;
39196;SDS011;42889;51.112;13.772;2022-08-01T01:41:17;5.97;;;2.50;;
39196;SDS011;42889;51.112;13.772;2022-08-01T01:43:45;3.83;;;2.60;;
39196;SDS011;42889;51.112;13.772;2022-08-01T01:46:15;4.32;;;2.40;;
39196;SDS011;42889;51.112;13.772;2022-08-01T01:48:44;4.93;;;2.40;;
39196;SDS011;42889;51.112;13.772;2022-08-01T01:51:13;3.30;;;2.00;;
39196;SDS011;42889;51.112;13.772;2022-08-01T01:54:00;3.80;;;2.10;;
39196;SDS011;42889;51.112;13.772;2022-08-01T01:56:28;6.07;;;2.50;;
39196;SDS011;42889;51.112;13.772;2022-08-01T01:58:58;5.25;;;2.25;;
39196;SDS011;42889;51.112;13.772;2022-08-01T02:01:28;4.43;;;2.38;;
39196;SDS011;42889;51.112;13.772;2022-08-01T02:04:17;5.13;;;2.13;;
39196;SDS011;42889;51.112;13.772;2022-08-01T02:06:46;3.85;;;2.40;;
39196;SDS011;42889;51.112;13.772;2022-08-01T02:09:16;4.63;;;2.10;;
39196;SDS011;42889;51.112;13.772;2022-08-01T02:11:45;7.07;;;2.25;;
39196;SDS011;42889;51.112;13.772;2022-08-01T02:14:34;3.90;;;2.22;;
39196;SDS011;42889;51.112;13.772;2022-08-01T02:17:04;4.07;;;2.10;;
39196;SDS011;42889;51.112;13.772;2022-08-01T02:19:30;3.38;;;2.50;;
39196;SDS011;42889;51.112;13.772;2022-08-01T02:27:26;4.20;;;2.33;;
39196;SDS011;42889;51.112;13.772;2022-08-01T02:30:05;4.38;;;2.60;;
39196;SDS011;42889;51.112;13.772;2022-08-01T02:32:36;3.63;;;2.25;;
39196;SDS011;42889;51.112;13.772;2022-08-01T02:35:09;4.05;;;2.53;;
39196;SDS011;42889;51.112;13.772;2022-08-01T02:37:39;4.97;;;2.40;;
39196;SDS011;42889;51.112;13.772;2022-08-01T02:40:12;6.00;;;2.45;;
39196;SDS011;42889;51.112;13.772;2022-08-01T02:42:43;5.05;;;2.28;;
39196;SDS011;42889;51.112;13.772;2022-08-01T02:45:13;3.55;;;2.17;;
39196;SDS011;42889;51.112;13.772;2022-08-01T02:47:43;6.22;;;2.17;;
39196;SDS011;42889;51.112;13.772;2022-08-01T02:50:12;4.90;;;2.25;;
39196;SDS011;42889;51.112;13.772;2022-08-01T02:52:40;3.53;;;1.95;;
39196;SDS011;42889;51.112;13.772;2022-08-01T02:55:09;5.10;;;2.22;;
39196;SDS011;42889;51.112;13.772;2022-08-01T02:57:37;3.85;;;2.20;;
39196;SDS011;42889;51.112;13.772;2022-08-01T03:00:18;3.20;;;1.85;;
39196;SDS011;42889;51.112;13.772;2022-08-01T03:02:49;3.42;;;1.92;;
39196;SDS011;42889;51.112;13.772;2022-08-01T03:05:20;3.72;;;1.90;;
39196;SDS011;42889;51.112;13.772;2022-08-01T03:07:48;4.75;;;1.92;;
39196;SDS011;42889;51.112;13.772;2022-08-01T03:10:16;3.22;;;1.92;;
39196;SDS011;42889;51.112;13.772;2022-08-01T03:12:43;3.20;;;1.90;;
39196;SDS011;42889;51.112;13.772;2022-08-01T03:15:13;4.28;;;2.13;;
39196;SDS011;42889;51.112;13.772;2022-08-01T03:17:41;4.10;;;1.90;;
39196;SDS011;42889;51.112;13.772;2022-08-01T03:20:10;5.35;;;2.03;;
39196;SDS011;42889;51.112;13.772;2022-08-01T03:22:40;5.07;;;2.15;;
39196;SDS011;42889;51.112;13.772;2022-08-01T03:25:10;2.85;;;1.90;;
39196;SDS011;42889;51.112;13.772;2022-08-01T03:27:38;4.82;;;2.10;;
39196;SDS011;42889;51.112;13.772;2022-08-01T03:30:08;3.72;;;2.25;;
39196;SDS011;42889;51.112;13.772;2022-08-01T03:32:36;3.50;;;2.25;;
39196;SDS011;42889;51.112;13.772;2022-08-01T03:35:03;4.07;;;2.15;;
39196;SDS011;42889;51.112;13.772;2022-08-01T03:37:34;3.50;;;2.30;;
39196;SDS011;42889;51.112;13.772;2022-08-01T03:40:25;4.22;;;2.25;;
39196;SDS011;42889;51.112;13.772;2022-08-01T03:43:10;4.70;;;2.53;;
39196;SDS011;42889;51.112;13.772;2022-08-01T03:45:43;3.88;;;2.47;;
39196;SDS011;42889;51.112;13.772;2022-08-01T03:48:16;3.67;;;2.42;;
39196;SDS011;42889;51.112;13.772;2022-08-01T03:50:48;3.03;;;2.05;;
39196;SDS011;42889;51.112;13.772;2022-08-01T03:53:19;5.97;;;2.22;;
39196;SDS011;42889;51.112;13.772;2022-08-01T03:55:48;6.65;;;2.47;;
39196;SDS011;42889;51.112;13.772;2022-08-01T03:58:16;3.15;;;2.13;;
39196;SDS011;42889;51.112;13.772;2022-08-01T04:00:43;4.05;;;2.30;;
39196;SDS011;42889;51.112;13.772;2022-08-01T04:03:11;3.60;;;2.10;;
39196;SDS011;42889;51.112;13.772;2022-08-01T04:05:42;4.20;;;2.33;;
39196;SDS011;42889;51.112;13.772;2022-08-01T04:08:09;4.13;;;2.15;;
39196;SDS011;42889;51.112;13.772;2022-08-01T04:10:36;4.72;;;2.38;;
39196;SDS011;42889;51.112;13.772;2022-08-01T04:13:03;4.53;;;2.17;;
39196;SDS011;42889;51.112;13.772;2022-08-01T04:15:30;4.45;;;2.30;;
39196;SDS011;42889;51.112;13.772;2022-08-01T04:17:56;5.22;;;2.20;;
39196;SDS011;42889;51.112;13.772;2022-08-01T04:20:23;4.20;;;2.20;;
39196;SDS011;42889;51.112;13.772;2022-08-01T04:22:49;4.70;;;2.10;;
39196;SDS011;42889;51.112;13.772;2022-08-01T04:25:21;3.78;;;2.30;;
39196;SDS011;42889;51.112;13.772;2022-08-01T04:27:53;5.97;;;2.25;;
39196;SDS011;42889;51.112;13.772;2022-08-01T05:07:57;3.55;;;2.30;;
39196;SDS011;42889;51.112;13.772;2022-08-01T06:31:28;2.72;;;1.80;;
39196;SDS011;42889;51.112;13.772;2022-08-01T06:36:26;5.18;;;2.17;;
39196;SDS011;42889;51.112;13.772;2022-08-01T06:38:53;3.92;;;2.17;;
39196;SDS011;42889;51.112;13.772;2022-08-01T06:41:21;3.63;;;2.63;;
39196;SDS011;42889;51.112;13.772;2022-08-01T06:43:48;3.90;;;2.50;;
39196;SDS011;42889;51.112;13.772;2022-08-01T06:46:15;3.55;;;2.40;;
39196;SDS011;42889;51.112;13.772;2022-08-01T06:48:42;4.28;;;2.60;;
39196;SDS011;42889;51.112;13.772;2022-08-01T06:51:08;4.35;;;2.72;;
39196;SDS011;42889;51.112;13.772;2022-08-01T06:53:36;3.45;;;2.55;;
39196;SDS011;42889;51.112;13.772;2022-08-01T06:56:03;3.95;;;2.90;;
39196;SDS011;42889;51.112;13.772;2022-08-01T06:58:30;3.72;;;3.00;;
39196;SDS011;42889;51.112;13.772;2022-08-01T07:00:57;4.70;;;3.47;;
39196;SDS011;42889;51.112;13.772;2022-08-01T07:03:24;4.70;;;3.58;;
39196;SDS011;42889;51.112;13.772;2022-08-01T07:06:11;5.00;;;3.33;;
39196;SDS011;42889;51.112;13.772;2022-08-01T07:08:40;7.18;;;3.55;;
39196;SDS011;42889;51.112;13.772;2022-08-01T07:11:06;5.05;;;3.30;;
39196;SDS011;42889;51.112;13.772;2022-08-01T07:13:34;5.68;;;3.28;;
39196;SDS011;42889;51.112;13.772;2022-08-01T07:16:09;4.40;;;3.42;;
39196;SDS011;42889;51.112;13.772;2022-08-01T07:18:35;5.50;;;3.88;;
39196;SDS011;42889;51.112;13.772;2022-08-01T07:21:04;4.15;;;3.45;;
39196;SDS011;42889;51.112;13.772;2022-08-01T07:23:41;4.18;;;2.97;;
39196;SDS011;42889;51.112;13.772;2022-08-01T07:26:11;4.32;;;3.35;;
39196;SDS011;42889;51.112;13.772;2022-08-01T07:28:38;4.00;;;3.00;;
39196;SDS011;42889;51.112;13.772;2022-08-01T07:31:09;4.90;;;3.40;;
39196;SDS011;42889;51.112;13.772;2022-08-01T07:33:35;5.20;;;3.38;;
39196;SDS011;42889;51.112;13.772;2022-08-01T07:36:14;5.13;;;3.10;;
39196;SDS011;42889;51.112;13.772;2022-08-01T07:38:42;4.15;;;3.20;;
39196;SDS011;42889;51.112;13.772;2022-08-01T07:41:08;4.90;;;3.60;;
39196;SDS011;42889;51.112;13.772;2022-08-01T07:43:35;4.65;;;3.20;;
39196;SDS011;42889;51.112;13.772;2022-08-01T07:46:05;4.40;;;3.25;;
39196;SDS011;42889;51.112;13.772;2022-08-01T07:48:32;4.25;;;3.20;;
39196;SDS011;42889;51.112;13.772;2022-08-01T07:50:59;7.20;;;3.40;;
39196;SDS011;42889;51.112;13.772;2022-08-01T07:53:25;4.65;;;3.38;;
39196;SDS011;42889;51.112;13.772;2022-08-01T07:55:52;4.55;;;2.90;;
39196;SDS011;42889;51.112;13.772;2022-08-01T07:58:18;4.25;;;3.00;;
39196;SDS011;42889;51.112;13.772;2022-08-01T08:00:45;6.13;;;3.42;;
39196;SDS011;42889;51.112;13.772;2022-08-01T08:03:11;3.60;;;2.83;;
39196;SDS011;42889;51.112;13.772;2022-08-01T08:05:38;3.90;;;2.60;;
39196;SDS011;42889;51.112;13.772;2022-08-01T08:08:24;5.55;;;2.80;;
39196;SDS011;42889;51.112;13.772;2022-08-01T08:10:51;4.07;;;2.58;;
39196;SDS011;42889;51.112;13.772;2022-08-01T08:13:18;4.32;;;2.60;;
39196;SDS011;42889;51.112;13.772;2022-08-01T08:15:46;8.93;;;2.70;;
39196;SDS011;42889;51.112;13.772;2022-08-01T08:18:13;4.80;;;2.28;;
39196;SDS011;42889;51.112;13.772;2022-08-01T08:20:40;3.90;;;2.42;;
39196;SDS011;42889;51.112;13.772;2022-08-01T08:23:06;6.22;;;2.45;;
39196;SDS011;42889;51.112;13.772;2022-08-01T08:26:09;3.92;;;2.40;;
39196;SDS011;42889;51.112;13.772;2022-08-01T08:28:38;3.00;;;2.05;;
39196;SDS011;42889;51.112;13.772;2022-08-01T08:31:05;3.25;;;1.80;;
39196;SDS011;42889;51.112;13.772;2022-08-01T08:33:32;2.53;;;1.48;;
39196;SDS011;42889;51.112;13.772;2022-08-01T08:35:59;4.15;;;2.00;;
39196;SDS011;42889;51.112;13.772;2022-08-01T08:38:26;3.65;;;1.67;;
39196;SDS011;42889;51.112;13.772;2022-08-01T08:40:55;5.63;;;1.70;;
39196;SDS011;42889;51.112;13.772;2022-08-01T08:43:23;4.20;;;1.70;;
39196;SDS011;42889;51.112;13.772;2022-08-01T08:45:51;5.38;;;1.63;;
39196;SDS011;42889;51.112;13.772;2022-08-01T08:48:25;3.90;;;1.60;;
39196;SDS011;42889;51.112;13.772;2022-08-01T08:50:53;3.72;;;1.65;;
39196;SDS011;42889;51.112;13.772;2022-08-01T08:53:21;2.50;;;1.27;;
39196;SDS011;42889;51.112;13.772;2022-08-01T08:55:48;3.75;;;1.40;;
39196;SDS011;42889;51.112;13.772;2022-08-01T08:58:21;3.03;;;1.10;;
39196;SDS011;42889;51.112;13.772;2022-08-01T09:00:57;1.95;;;0.93;;
39196;SDS011;42889;51.112;13.772;2022-08-01T09:03:24;2.85;;;1.13;;
39196;SDS011;42889;51.112;13.772;2022-08-01T09:05:51;2.08;;;1.00;;
39196;SDS011;42889;51.112;13.772;2022-08-01T09:08:17;2.05;;;1.00;;
39196;SDS011;42889;51.112;13.772;2022-08-01T09:10:44;1.48;;;0.80;;
39196;SDS011;42889;51.112;13.772;2022-08-01T09:13:11;1.75;;;0.93;;
39196;SDS011;42889;51.112;13.772;2022-08-01T09:15:49;2.55;;;0.88;;
39196;SDS011;42889;51.112;13.772;2022-08-01T09:18:26;2.25;;;0.80;;
39196;SDS011;42889;51.112;13.772;2022-08-01T09:23:33;2.63;;;0.95;;
39196;SDS011;42889;51.112;13.772;2022-08-01T09:26:33;3.28;;;0.80;;
39196;SDS011;42889;51.112;13.772;2022-08-01T09:29:02;2.53;;;0.70;;
39196;SDS011;42889;51.112;13.772;2022-08-01T09:31:39;1.80;;;0.70;;
39196;SDS011;42889;51.112;13.772;2022-08-01T09:34:13;1.73;;;0.65;;
39196;SDS011;42889;51.112;13.772;2022-08-01T09:36:45;2.10;;;0.80;;
39196;SDS011;42889;51.112;13.772;2022-08-01T09:39:20;3.25;;;0.90;;
39196;SDS011;42889;51.112;13.772;2022-08-01T09:41:59;2.05;;;0.70;;
39196;SDS011;42889;51.112;13.772;2022-08-01T09:44:40;2.08;;;0.60;;
39196;SDS011;42889;51.112;13.772;2022-08-01T09:47:20;3.22;;;0.90;;
39196;SDS011;42889;51.112;13.772;2022-08-01T09:49:56;3.63;;;1.13;;
39196;SDS011;42889;51.112;13.772;2022-08-01T09:52:26;1.38;;;0.85;;
39196;SDS011;42889;51.112;13.772;2022-08-01T09:55:02;2.27;;;0.90;;
39196;SDS011;42889;51.112;13.772;2022-08-01T09:57:31;2.03;;;1.05;;
39196;SDS011;42889;51.112;13.772;2022-08-01T09:59:58;1.65;;;0.82;;
39196;SDS011;42889;51.112;13.772;2022-08-01T10:02:37;1.95;;;0.90;;
39196;SDS011;42889;51.112;13.772;2022-08-01T10:05:07;1.88;;;0.52;;
39196;SDS011;42889;51.112;13.772;2022-08-01T10:07:36;1.57;;;0.50;;
39196;SDS011;42889;51.112;13.772;2022-08-01T10:10:23;1.20;;;0.60;;
39196;SDS011;42889;51.112;13.772;2022-08-01T10:12:55;3.05;;;0.50;;
39196;SDS011;42889;51.112;13.772;2022-08-01T10:15:23;0.80;;;0.50;;
39196;SDS011;42889;51.112;13.772;2022-08-01T10:18:03;2.58;;;0.57;;
39196;SDS011;42889;51.112;13.772;2022-08-01T10:20:51;1.95;;;0.68;;
39196;SDS011;42889;51.112;13.772;2022-08-01T10:23:23;1.65;;;0.60;;
39196;SDS011;42889;51.112;13.772;2022-08-01T10:26:06;0.90;;;0.40;;
39196;SDS011;42889;51.112;13.772;2022-08-01T10:28:34;1.40;;;0.30;;
39196;SDS011;42889;51.112;13.772;2022-08-01T10:33:39;0.65;;;0.30;;
39196;SDS011;42889;51.112;13.772;2022-08-01T10:36:21;0.90;;;0.40;;
39196;SDS011;42889;51.112;13.772;2022-08-01T10:38:51;1.40;;;0.43;;
39196;SDS011;42889;51.112;13.772;2022-08-01T10:41:21;2.00;;;0.50;;
39196;SDS011;42889;51.112;13.772;2022-08-01T10:43:52;2.55;;;0.40;;
39196;SDS011;42889;51.112;13.772;2022-08-01T10:46:20;1.48;;;0.20;;
39196;SDS011;42889;51.112;13.772;2022-08-01T10:48:49;1.17;;;0.30;;
39196;SDS011;42889;51.112;13.772;2022-08-01T10:54:14;0.63;;;0.20;;
39196;SDS011;42889;51.112;13.772;2022-08-01T10:56:44;0.30;;;0.10;;
39196;SDS011;42889;51.112;13.772;2022-08-01T10:59:14;0.45;;;0.17;;
39196;SDS011;42889;51.112;13.772;2022-08-01T11:02:07;1.58;;;0.10;;
39196;SDS011;42889;51.112;13.772;2022-08-01T11:07:20;1.95;;;0.10;;
39196;SDS011;42889;51.112;13.772;2022-08-01T11:10:04;0.43;;;0.10;;
39196;SDS011;42889;51.112;13.772;2022-08-01T11:12:42;0.32;;;0.10;;
39196;SDS011;42889;51.112;13.772;2022-08-01T11:17:40;0.77;;;0.17;;
39196;SDS011;42889;51.112;13.772;2022-08-01T11:25:25;0.50;;;0.13;;
39196;SDS011;42889;51.112;13.772;2022-08-01T11:38:41;0.65;;;0.10;;
39196;SDS011;42889;51.112;13.772;2022-08-01T11:41:17;2.50;;;0.20;;
39196;SDS011;42889;51.112;13.772;2022-08-01T11:52:07;3.33;;;0.20;;
39196;SDS011;42889;51.112;13.772;2022-08-01T11:57:14;2.90;;;0.20;;
39196;SDS011;42889;51.112;13.772;2022-08-01T11:59:52;1.10;;;0.30;;
39196;SDS011;42889;51.112;13.772;2022-08-01T12:02:33;3.13;;;0.20;;
39196;SDS011;42889;51.112;13.772;2022-08-01T12:05:02;1.52;;;0.30;;
39196;SDS011;42889;51.112;13.772;2022-08-01T12:07:30;0.50;;;0.20;;
39196;SDS011;42889;51.112;13.772;2022-08-01T12:10:00;3.05;;;0.22;;
39196;SDS011;42889;51.112;13.772;2022-08-01T12:12:32;0.98;;;0.20;;
39196;SDS011;42889;51.112;13.772;2022-08-01T12:15:04;1.05;;;0.20;;
39196;SDS011;42889;51.112;13.772;2022-08-01T12:17:43;3.00;;;0.20;;
39196;SDS011;42889;51.112;13.772;2022-08-01T12:20:24;1.17;;;0.20;;
39196;SDS011;42889;51.112;13.772;2022-08-01T12:22:57;1.73;;;0.30;;
39196;SDS011;42889;51.112;13.772;2022-08-01T12:25:25;4.18;;;0.30;;
39196;SDS011;42889;51.112;13.772;2022-08-01T12:27:52;2.05;;;0.20;;
39196;SDS011;42889;51.112;13.772;2022-08-01T12:30:22;1.67;;;0.20;;
39196;SDS011;42889;51.112;13.772;2022-08-01T12:32:51;1.35;;;0.20;;
39196;SDS011;42889;51.112;13.772;2022-08-01T12:35:20;0.93;;;0.22;;
39196;SDS011;42889;51.112;13.772;2022-08-01T12:37:54;0.43;;;0.13;;
39196;SDS011;42889;51.112;13.772;2022-08-01T12:40:24;2.03;;;0.20;;
39196;SDS011;42889;51.112;13.772;2022-08-01T12:45:25;3.45;;;0.20;;
39196;SDS011;42889;51.112;13.772;2022-08-01T12:47:55;2.67;;;0.30;;
39196;SDS011;42889;51.112;13.772;2022-08-01T12:50:25;0.73;;;0.20;;
39196;SDS011;42889;51.112;13.772;2022-08-01T12:52:54;0.60;;;0.20;;
39196;SDS011;42889;51.112;13.772;2022-08-01T12:55:25;2.00;;;0.20;;
39196;SDS011;42889;51.112;13.772;2022-08-01T12:58:07;0.63;;;0.20;;
39196;SDS011;42889;51.112;13.772;2022-08-01T13:00:41;1.95;;;0.20;;
39196;SDS011;42889;51.112;13.772;2022-08-01T13:05:42;1.17;;;0.20;;
39196;SDS011;42889;51.112;13.772;2022-08-01T13:08:22;1.85;;;0.10;;
39196;SDS011;42889;51.112;13.772;2022-08-01T13:10:50;2.80;;;0.17;;
39196;SDS011;42889;51.112;13.772;2022-08-01T13:13:34;0.40;;;0.10;;
39196;SDS011;42889;51.112;13.772;2022-08-01T13:16:24;1.20;;;0.20;;
39196;SDS011;42889;51.112;13.772;2022-08-01T13:19:11;0.95;;;0.20;;
39196;SDS011;42889;51.112;13.772;2022-08-01T13:21:39;1.55;;;0.10;;
39196;SDS011;42889;51.112;13.772;2022-08-01T13:24:27;4.20;;;0.28;;
39196;SDS011;42889;51.112;13.772;2022-08-01T13:32:00;0.43;;;0.10;;
39196;SDS011;42889;51.112;13.772;2022-08-01T13:35:04;1.80;;;0.20;;
39196;SDS011;42889;51.112;13.772;2022-08-01T13:37:34;3.25;;;0.20;;
39196;SDS011;42889;51.112;13.772;2022-08-01T13:42:31;3.60;;;0.10;;
39196;SDS011;42889;51.112;13.772;2022-08-01T13:44:58;0.73;;;0.10;;
39196;SDS011;42889;51.112;13.772;2022-08-01T13:47:25;0.93;;;0.10;;
39196;SDS011;42889;51.112;13.772;2022-08-01T13:49:57;3.33;;;0.20;;
39196;SDS011;42889;51.112;13.772;2022-08-01T13:52:28;1.83;;;0.20;;
39196;SDS011;42889;51.112;13.772;2022-08-01T13:54:55;1.90;;;0.10;;
39196;SDS011;42889;51.112;13.772;2022-08-01T13:57:21;3.22;;;0.13;;
39196;SDS011;42889;51.112;13.772;2022-08-01T13:59:48;2.00;;;0.10;;
39196;SDS011;42889;51.112;13.772;2022-08-01T14:02:15;0.60;;;0.10;;
39196;SDS011;42889;51.112;13.772;2022-08-01T14:04:41;3.33;;;0.20;;
39196;SDS011;42889;51.112;13.772;2022-08-01T14:07:08;0.70;;;0.17;;
39196;SDS011;42889;51.112;13.772;2022-08-01T14:09:40;0.38;;;0.17;;
39196;SDS011;42889;51.112;13.772;2022-08-01T14:12:22;3.47;;;0.20;;
39196;SDS011;42889;51.112;13.772;2022-08-01T14:14:49;1.15;;;0.20;;
39196;SDS011;42889;51.112;13.772;2022-08-01T14:17:16;1.02;;;0.20;;
39196;SDS011;42889;51.112;13.772;2022-08-01T14:19:42;2.47;;;0.30;;
39196;SDS011;42889;51.112;13.772;2022-08-01T14:22:11;0.43;;;0.20;;
39196;SDS011;42889;51.112;13.772;2022-08-01T14:24:38;1.00;;;0.20;;
39196;SDS011;42889;51.112;13.772;2022-08-01T14:27:06;1.02;;;0.20;;
39196;SDS011;42889;51.112;13.772;2022-08-01T14:29:32;1.13;;;0.20;;
39196;SDS011;42889;51.112;13.772;2022-08-01T14:32:19;1.73;;;0.20;;
39196;SDS011;42889;51.112;13.772;2022-08-01T14:34:54;2.60;;;0.30;;
39196;SDS011;42889;51.112;13.772;2022-08-01T14:37:22;2.38;;;0.30;;
39196;SDS011;42889;51.112;13.772;2022-08-01T14:39:55;1.50;;;0.30;;
39196;SDS011;42889;51.112;13.772;2022-08-01T14:42:23;2.53;;;0.20;;
39196;SDS011;42889;51.112;13.772;2022-08-01T14:44:50;1.15;;;0.30;;
39196;SDS011;42889;51.112;13.772;2022-08-01T14:47:17;0.93;;;0.35;;
39196;SDS011;42889;51.112;13.772;2022-08-01T14:52:14;3.50;;;0.30;;
39196;SDS011;42889;51.112;13.772;2022-08-01T14:54:40;1.92;;;0.30;;
39196;SDS011;42889;51.112;13.772;2022-08-01T14:57:07;3.38;;;0.30;;
39196;SDS011;42889;51.112;13.772;2022-08-01T14:59:33;0.70;;;0.20;;
39196;SDS011;42889;51.112;13.772;2022-08-01T15:02:01;1.60;;;0.30;;
39196;SDS011;42889;51.112;13.772;2022-08-01T15:04:28;0.98;;;0.20;;
39196;SDS011;42889;51.112;13.772;2022-08-01T15:06:54;1.52;;;0.20;;
39196;SDS011;42889;51.112;13.772;2022-08-01T15:09:21;1.27;;;0.20;;
39196;SDS011;42889;51.112;13.772;2022-08-01T15:11:49;1.40;;;0.30;;
39196;SDS011;42889;51.112;13.772;2022-08-01T15:14:15;4.25;;;0.28;;
39196;SDS011;42889;51.112;13.772;2022-08-01T15:17:01;1.15;;;0.20;;
39196;SDS011;42889;51.112;13.772;2022-08-01T15:19:27;0.43;;;0.20;;
39196;SDS011;42889;51.112;13.772;2022-08-01T15:21:54;0.95;;;0.20;;
39196;SDS011;42889;51.112;13.772;2022-08-01T15:24:20;1.30;;;0.20;;
39196;SDS011;42889;51.112;13.772;2022-08-01T15:26:46;0.57;;;0.20;;
39196;SDS011;42889;51.112;13.772;2022-08-01T15:29:14;0.50;;;0.20;;
39196;SDS011;42889;51.112;13.772;2022-08-01T15:31:41;0.60;;;0.20;;
39196;SDS011;42889;51.112;13.772;2022-08-01T15:34:08;1.08;;;0.20;;
39196;SDS011;42889;51.112;13.772;2022-08-01T15:36:34;1.67;;;0.30;;
39196;SDS011;42889;51.112;13.772;2022-08-01T15:39:01;0.68;;;0.20;;
39196;SDS011;42889;51.112;13.772;2022-08-01T15:41:27;0.60;;;0.22;;
39196;SDS011;42889;51.112;13.772;2022-08-01T15:43:54;1.55;;;0.30;;
39196;SDS011;42889;51.112;13.772;2022-08-01T15:46:21;1.45;;;0.10;;
39196;SDS011;42889;51.112;13.772;2022-08-01T15:48:48;1.63;;;0.20;;
39196;SDS011;42889;51.112;13.772;2022-08-01T15:51:15;0.57;;;0.20;;
39196;SDS011;42889;51.112;13.772;2022-08-01T15:53:41;2.33;;;0.30;;
39196;SDS011;42889;51.112;13.772;2022-08-01T15:56:08;3.10;;;0.28;;
39196;SDS011;42889;51.112;13.772;2022-08-01T15:58:35;1.45;;;0.20;;
39196;SDS011;42889;51.112;13.772;2022-08-01T16:01:01;2.25;;;0.25;;
39196;SDS011;42889;51.112;13.772;2022-08-01T16:03:28;0.60;;;0.30;;
39196;SDS011;42889;51.112;13.772;2022-08-01T16:05:55;0.77;;;0.28;;
39196;SDS011;42889;51.112;13.772;2022-08-01T16:08:21;0.85;;;0.20;;
39196;SDS011;42889;51.112;13.772;2022-08-01T16:10:48;6.40;;;0.30;;
39196;SDS011;42889;51.112;13.772;2022-08-01T16:13:15;3.47;;;0.25;;
39196;SDS011;42889;51.112;13.772;2022-08-01T16:15:41;0.60;;;0.30;;
39196;SDS011;42889;51.112;13.772;2022-08-01T16:18:09;1.50;;;0.40;;
39196;SDS011;42889;51.112;13.772;2022-08-01T16:20:39;1.40;;;0.30;;
39196;SDS011;42889;51.112;13.772;2022-08-01T16:23:11;0.70;;;0.22;;
39196;SDS011;42889;51.112;13.772;2022-08-01T16:25:39;0.80;;;0.20;;
39196;SDS011;42889;51.112;13.772;2022-08-01T16:28:06;2.58;;;0.28;;
39196;SDS011;42889;51.112;13.772;2022-08-01T16:30:35;1.13;;;0.30;;
39196;SDS011;42889;51.112;13.772;2022-08-01T16:33:16;0.95;;;0.30;;
39196;SDS011;42889;51.112;13.772;2022-08-01T16:36:02;0.52;;;0.20;;
39196;SDS011;42889;51.112;13.772;2022-08-01T16:38:30;0.77;;;0.20;;
39196;SDS011;42889;51.112;13.772;2022-08-01T16:40:56;1.25;;;0.17;;
39196;SDS011;42889;51.112;13.772;2022-08-01T16:43:23;1.60;;;0.20;;
39196;SDS011;42889;51.112;13.772;2022-08-01T16:45:49;0.70;;;0.20;;
39196;SDS011;42889;51.112;13.772;2022-08-01T16:48:16;0.40;;;0.10;;
39196;SDS011;42889;51.112;13.772;2022-08-01T16:50:46;1.20;;;0.20;;
39196;SDS011;42889;51.112;13.772;2022-08-01T16:53:18;1.67;;;0.20;;
39196;SDS011;42889;51.112;13.772;2022-08-01T16:55:46;1.92;;;0.20;;
39196;SDS011;42889;51.112;13.772;2022-08-01T16:58:17;1.30;;;0.35;;
39196;SDS011;42889;51.112;13.772;2022-08-01T17:00:53;0.68;;;0.20;;
39196;SDS011;42889;51.112;13.772;2022-08-01T17:03:22;2.37;;;0.20;;
39196;SDS011;42889;51.112;13.772;2022-08-01T17:06:09;1.33;;;0.20;;
39196;SDS011;42889;51.112;13.772;2022-08-01T17:08:36;1.85;;;0.20;;
39196;SDS011;42889;51.112;13.772;2022-08-01T17:11:12;1.00;;;0.20;;
39196;SDS011;42889;51.112;13.772;2022-08-01T17:13:40;0.52;;;0.17;;
39196;SDS011;42889;51.112;13.772;2022-08-01T17:16:07;0.40;;;0.20;;
39196;SDS011;42889;51.112;13.772;2022-08-01T17:18:35;1.40;;;0.10;;
39196;SDS011;42889;51.112;13.772;2022-08-01T17:21:02;1.42;;;0.17;;
39196;SDS011;42889;51.112;13.772;2022-08-01T17:23:28;0.77;;;0.20;;
39196;SDS011;42889;51.112;13.772;2022-08-01T17:25:57;1.35;;;0.20;;
39196;SDS011;42889;51.112;13.772;2022-08-01T17:28:24;0.75;;;0.20;;
39196;SDS011;42889;51.112;13.772;2022-08-01T17:30:51;0.93;;;0.40;;
39196;SDS011;42889;51.112;13.772;2022-08-01T17:33:18;0.95;;;0.20;;
39196;SDS011;42889;51.112;13.772;2022-08-01T17:35:44;0.50;;;0.20;;
39196;SDS011;42889;51.112;13.772;2022-08-01T17:38:11;1.00;;;0.10;;
39196;SDS011;42889;51.112;13.772;2022-08-01T17:40:37;1.13;;;0.40;;
39196;SDS011;42889;51.112;13.772;2022-08-01T17:43:06;0.70;;;0.20;;
39196;SDS011;42889;51.112;13.772;2022-08-01T17:45:33;0.32;;;0.10;;
39196;SDS011;42889;51.112;13.772;2022-08-01T17:48:15;1.33;;;0.20;;
39196;SDS011;42889;51.112;13.772;2022-08-01T17:50:43;0.45;;;0.10;;
39196;SDS011;42889;51.112;13.772;2022-08-01T17:53:12;1.65;;;0.20;;
39196;SDS011;42889;51.112;13.772;2022-08-01T17:55:46;1.50;;;0.20;;
39196;SDS011;42889;51.112;13.772;2022-08-01T17:58:22;1.45;;;0.20;;
39196;SDS011;42889;51.112;13.772;2022-08-01T18:01:13;1.25;;;0.20;;
39196;SDS011;42889;51.112;13.772;2022-08-01T18:03:42;0.70;;;0.30;;
39196;SDS011;42889;51.112;13.772;2022-08-01T18:06:10;0.50;;;0.20;;
39196;SDS011;42889;51.112;13.772;2022-08-01T18:08:44;0.63;;;0.20;;